A. J. Meerwald — WCW7096 — position and weather

sailwx.info

Track history (hours):
 
Tides and Currents Weather Stations Pressure Air Temp Water Temp Dewpoint Dewpoint Depression Visibility Wind Speed Wind Dir Waves Ship Positions

A. J. Meerwald

Owner: Bayshore Discovery Project, PORT NORRIS, NJ. More information available from US FCC via Universal Licensing System and Coast Guard Vessel Documentation Center.

Last reported at 2017-Oct-23 15:23 UTC. Time now 2017-Nov-20 07:52 UTC.
Position N 39°14' W 075°01'.
Warning: this ship's position is 27 days out of date.

Type: Sailing vessel. MMSI: 367115280.

Date/timePositionNaut miles runAvg speedWind from/ knotsBaromVisibWave heightAir tempDewpointWater temp
2017-Oct-23 15:23N 39°14' W 075°01'1 2.1
2017-Oct-23 14:58N 39°13' W 075°02'1 1.6
2017-Oct-23 14:26N 39°13' W 075°02'1 2.0
2017-Oct-23 14:00N 39°13' W 075°02'1 0.1
2017-Oct-22 16:30N 39°12' W 075°03'0 0.7
2017-Oct-22 16:00N 39°12' W 075°02'2 3.4
2017-Oct-22 15:30N 39°14' W 075°02'0 0.0
2017-Oct-22 00:30N 39°14' W 075°02'0 0.0
2017-Oct-22 00:00N 39°14' W 075°02'0 0.0
2017-Oct-21 23:30N 39°14' W 075°02'0 0.0
2017-Oct-21 14:00N 39°14' W 075°02'0 0.0
2017-Oct-21 13:25N 39°14' W 075°02'0 0.0
2017-Oct-21 11:51N 39°14' W 075°02'0 0.0
2017-Oct-21 11:30N 39°14' W 075°02'0 0.0
2017-Oct-20 11:06N 39°14' W 075°02'0 0.0
2017-Oct-20 10:49N 39°14' W 075°02'0 0.0
2017-Oct-20 10:29N 39°14' W 075°02'0 0.0
2017-Oct-20 10:00N 39°14' W 075°02'0 0.0
2017-Oct-20 09:30N 39°14' W 075°02'0 0.0
2017-Oct-20 09:00N 39°14' W 075°02'0 0.0
2017-Oct-20 08:30N 39°14' W 075°02'0 0.0
2017-Oct-20 08:00N 39°14' W 075°02'0 0.0
2017-Oct-20 07:30N 39°14' W 075°02'0 0.0
2017-Oct-20 06:59N 39°14' W 075°02'0 0.0
2017-Oct-20 06:29N 39°14' W 075°02'0 0.0
2017-Oct-20 03:43N 39°14' W 075°02'0 0.0
2017-Oct-20 03:29N 39°14' W 075°02'0 0.0
2017-Oct-20 02:55N 39°14' W 075°02'0 0.1
2017-Oct-19 23:22N 39°14' W 075°02'2 5.9
2017-Oct-19 22:59N 39°11' W 075°02'4 7.4
2017-Oct-19 22:30N 39°08' W 075°03'50 6.4
2017-Oct-19 14:39N 38°18' W 075°02'2 7.7
2017-Oct-19 14:25N 38°16' W 075°03'3 7.8
2017-Oct-19 14:00N 38°13' W 075°05'4 7.7
2017-Oct-19 13:30N 38°09' W 075°06'6 7.9
2017-Oct-19 12:47N 38°04' W 075°09'  
2017-Oct-15 14:57N 36°53' W 076°20'3 0.1
2017-Oct-13 17:43N 36°50' W 076°18'0 0.7
2017-Oct-13 17:30N 36°50' W 076°18'0 0.8
2017-Oct-13 17:00N 36°50' W 076°18'  
Track history (hours):
 
Tides and Currents Weather Stations Pressure Air Temp Water Temp Dewpoint Dewpoint Depression Visibility Wind Speed Wind Dir Waves Ship Positions

A. J. Meerwald

Owner: Bayshore Discovery Project, PORT NORRIS, NJ. More information available from US FCC via Universal Licensing System and Coast Guard Vessel Documentation Center.

Last reported at 2017-Oct-23 15:23 UTC. Time now 2017-Nov-20 07:52 UTC.
Position N 39°14' W 075°01'.
Warning: this ship's position is 27 days out of date.

Type: Sailing vessel. MMSI: 367115280.

Date/timePositionNaut miles runAvg speedWind from/ knotsBaromVisibWave heightAir tempDewpointWater temp
2017-Oct-23 15:23N 39°14' W 075°01'1 2.1
2017-Oct-23 14:58N 39°13' W 075°02'1 1.6
2017-Oct-23 14:26N 39°13' W 075°02'1 2.0
2017-Oct-23 14:00N 39°13' W 075°02'1 0.1
2017-Oct-22 16:30N 39°12' W 075°03'0 0.7
2017-Oct-22 16:00N 39°12' W 075°02'2 3.4
2017-Oct-22 15:30N 39°14' W 075°02'0 0.0
2017-Oct-22 00:30N 39°14' W 075°02'0 0.0
2017-Oct-22 00:00N 39°14' W 075°02'0 0.0
2017-Oct-21 23:30N 39°14' W 075°02'0 0.0
2017-Oct-21 14:00N 39°14' W 075°02'0 0.0
2017-Oct-21 13:25N 39°14' W 075°02'0 0.0
2017-Oct-21 11:51N 39°14' W 075°02'0 0.0
2017-Oct-21 11:30N 39°14' W 075°02'0 0.0
2017-Oct-20 11:06N 39°14' W 075°02'0 0.0
2017-Oct-20 10:49N 39°14' W 075°02'0 0.0
2017-Oct-20 10:29N 39°14' W 075°02'0 0.0
2017-Oct-20 10:00N 39°14' W 075°02'0 0.0
2017-Oct-20 09:30N 39°14' W 075°02'0 0.0
2017-Oct-20 09:00N 39°14' W 075°02'0 0.0
2017-Oct-20 08:30N 39°14' W 075°02'0 0.0
2017-Oct-20 08:00N 39°14' W 075°02'0 0.0
2017-Oct-20 07:30N 39°14' W 075°02'0 0.0
2017-Oct-20 06:59N 39°14' W 075°02'0 0.0
2017-Oct-20 06:29N 39°14' W 075°02'0 0.0
2017-Oct-20 03:43N 39°14' W 075°02'0 0.0
2017-Oct-20 03:29N 39°14' W 075°02'0 0.0
2017-Oct-20 02:55N 39°14' W 075°02'0 0.1
2017-Oct-19 23:22N 39°14' W 075°02'2 5.9
2017-Oct-19 22:59N 39°11' W 075°02'4 7.4
2017-Oct-19 22:30N 39°08' W 075°03'50 6.4
2017-Oct-19 14:39N 38°18' W 075°02'2 7.7
2017-Oct-19 14:25N 38°16' W 075°03'3 7.8
2017-Oct-19 14:00N 38°13' W 075°05'4 7.7
2017-Oct-19 13:30N 38°09' W 075°06'6 7.9
2017-Oct-19 12:47N 38°04' W 075°09'  
2017-Oct-15 14:57N 36°53' W 076°20'3 0.1
2017-Oct-13 17:43N 36°50' W 076°18'0 0.7
2017-Oct-13 17:30N 36°50' W 076°18'0 0.8
2017-Oct-13 17:00N 36°50' W 076°18'  

Dump ship's entire track history